Time;durP1;ratioP1;P1;durP2;ratioP2;P2;SDS_P1;SDS_P2;PMS_P1;PMS_P2;Temp;Humidity;BMP_temperature;BMP_pressure;BME280_temperature;BME280_humidity;BME280_pressure;Samples;Min_cycle;Max_cycle;Signal;HPM_P1;HPM_P2
2022/11/07 04:00:26;;;;;;;14.40;3.60;;;10.90;99.90;;;;;;6123615;23;20433;-81
2022/11/07 04:02:52;;;;;;;17.70;4.15;;;10.90;99.90;;;;;;6184511;23;20094;-80
2022/11/07 04:05:18;;;;;;;13.30;4.32;;;11.00;99.90;;;;;;6185109;23;20013;-81
2022/11/07 04:07:43;;;;;;;19.08;4.30;;;10.90;99.90;;;;;;6184956;23;20493;-77
2022/11/07 04:10:09;;;;;;;11.85;3.85;;;10.90;99.90;;;;;;6186607;23;20016;-79
2022/11/07 04:18:03;;;;;;;16.00;4.18;;;10.90;99.90;;;;;;6155285;23;20044;-78
2022/11/07 04:20:29;;;;;;;14.38;4.40;;;10.90;99.90;;;;;;6155462;23;20319;-79
2022/11/07 04:22:54;;;;;;;20.20;5.70;;;10.90;99.90;;;;;;6156928;23;20024;-79
2022/11/07 04:27:41;;;;;;;15.60;4.50;;;10.90;99.90;;;;;;6155205;23;20454;-78
2022/11/07 04:28:05;;;;;;;17.75;5.80;;;10.90;99.90;;;;;;6156731;23;20021;-74
2022/11/07 04:30:31;;;;;;;18.40;4.97;;;10.80;99.90;;;;;;6156023;23;20028;-80
2022/11/07 04:32:58;;;;;;;12.00;4.68;;;10.80;99.90;;;;;;6156078;23;20018;-79
2022/11/07 04:35:27;;;;;;;18.50;5.50;;;10.80;99.90;;;;;;6180574;23;20006;-78
2022/11/07 04:37:53;;;;;;;14.30;5.28;;;10.80;99.90;;;;;;6155079;23;20392;-83
2022/11/07 04:40:20;;;;;;;15.45;5.32;;;10.80;99.90;;;;;;6156976;23;20014;-80
2022/11/07 04:42:46;;;;;;;18.92;5.45;;;10.80;99.90;;;;;;6157202;23;20071;-80
2022/11/07 04:45:13;;;;;;;17.80;5.80;;;10.80;99.90;;;;;;6180865;23;20059;-81
2022/11/07 04:47:39;;;;;;;15.38;6.13;;;10.80;99.90;;;;;;6156413;23;20018;-80
2022/11/07 04:50:07;;;;;;;20.73;6.15;;;10.80;99.90;;;;;;6155364;23;20064;-81
2022/11/07 04:52:33;;;;;;;18.25;6.18;;;10.80;99.90;;;;;;6179899;23;20022;-80
2022/11/07 04:54:58;;;;;;;18.27;5.70;;;10.70;99.90;;;;;;6180264;23;20084;-77
2022/11/07 04:57:24;;;;;;;19.15;5.75;;;10.80;99.90;;;;;;6154941;23;20020;-76
2022/11/07 04:59:49;;;;;;;21.85;6.50;;;10.80;99.90;;;;;;6155355;23;20439;-74
2022/11/07 05:02:15;;;;;;;19.70;5.72;;;10.70;99.90;;;;;;6155204;23;20025;-78
2022/11/07 05:04:41;;;;;;;13.10;5.43;;;10.80;99.90;;;;;;6157186;23;20017;-77
2022/11/07 05:07:07;;;;;;;15.07;5.25;;;10.70;99.90;;;;;;6156266;23;20010;-77
2022/11/07 05:09:33;;;;;;;20.35;6.63;;;10.70;99.90;;;;;;6155441;23;20313;-77
2022/11/07 05:12:01;;;;;;;16.02;5.32;;;10.70;99.90;;;;;;6155201;23;20025;-75
2022/11/07 05:14:29;;;;;;;13.45;5.20;;;10.70;99.90;;;;;;6155475;23;20088;-79
2022/11/07 05:16:56;;;;;;;13.40;5.53;;;10.70;99.90;;;;;;6180000;23;20021;-75
2022/11/07 05:19:22;;;;;;;16.08;5.03;;;10.70;99.90;;;;;;6157030;23;20009;-84
2022/11/07 05:23:10;;;;;;;11.25;5.35;;;10.70;99.90;;;;;;6130682;23;20525;-81
2022/11/07 05:24:33;;;;;;;15.90;5.78;;;10.70;99.90;;;;;;6156709;23;20029;-81
2022/11/07 05:26:58;;;;;;;18.27;5.95;;;10.70;99.90;;;;;;6157265;23;20009;-81
2022/11/07 05:29:24;;;;;;;16.17;5.50;;;10.70;99.90;;;;;;6155043;23;20028;-75
2022/11/07 05:31:50;;;;;;;14.65;5.38;;;10.70;99.90;;;;;;6154391;23;20089;-78
2022/11/07 05:34:15;;;;;;;15.35;5.53;;;10.60;99.90;;;;;;6155251;23;20025;-79
2022/11/07 05:36:41;;;;;;;11.88;4.57;;;10.70;99.90;;;;;;6155686;23;20010;-83
2022/11/07 05:39:07;;;;;;;10.18;4.60;;;10.70;99.90;;;;;;6155878;23;20025;-81
2022/11/07 05:41:34;;;;;;;15.48;4.75;;;10.70;99.90;;;;;;6155122;23;20344;-84
2022/11/07 05:44:01;;;;;;;20.05;6.05;;;10.60;99.90;;;;;;6157170;23;20052;-77
2022/11/07 05:46:26;;;;;;;15.23;5.10;;;10.60;99.90;;;;;;6156795;23;20018;-77
2022/11/07 05:48:52;;;;;;;14.32;4.97;;;10.60;99.90;;;;;;6155068;23;20013;-80
2022/11/07 05:51:17;;;;;;;15.27;4.88;;;10.60;99.90;;;;;;6130058;23;20014;-79
2022/11/07 05:53:43;;;;;;;10.85;4.57;;;10.60;99.90;;;;;;6179497;23;20036;-77
2022/11/07 05:56:09;;;;;;;17.48;4.93;;;10.60;99.90;;;;;;6179400;23;20013;-81
2022/11/07 05:58:34;;;;;;;16.63;4.90;;;10.60;99.90;;;;;;6156031;23;20384;-77
2022/11/07 06:01:02;;;;;;;15.07;5.07;;;10.60;99.90;;;;;;6154631;23;20017;-80
2022/11/07 06:03:28;;;;;;;14.43;4.93;;;10.60;99.90;;;;;;6179430;23;20018;-83
2022/11/07 06:05:53;;;;;;;12.88;5.05;;;10.60;99.90;;;;;;6154682;23;20036;-80
2022/11/07 06:08:19;;;;;;;11.75;4.50;;;10.70;99.90;;;;;;6157101;23;20020;-80
2022/11/07 06:10:44;;;;;;;17.15;5.00;;;10.80;99.90;;;;;;6156306;23;20376;-82
2022/11/07 06:13:13;;;;;;;14.10;5.32;;;10.80;99.90;;;;;;6156611;23;20368;-77
2022/11/07 06:15:40;;;;;;;19.13;5.10;;;10.80;99.90;;;;;;6181233;23;20016;-78
2022/11/07 06:18:10;;;;;;;11.98;5.43;;;10.80;99.90;;;;;;6181316;23;20067;-78
2022/11/07 06:20:35;;;;;;;15.95;5.30;;;10.80;99.90;;;;;;6157878;23;20026;-80
2022/11/07 06:23:03;;;;;;;17.20;6.75;;;10.80;99.90;;;;;;6181086;23;20070;-80
2022/11/07 06:25:29;;;;;;;18.55;6.82;;;10.80;99.90;;;;;;6180223;23;20439;-83
2022/11/07 06:28:03;;;;;;;20.05;7.32;;;10.80;99.90;;;;;;6155401;23;20096;-82
2022/11/07 06:30:30;;;;;;;20.08;7.93;;;10.70;99.90;;;;;;6155957;23;20048;-77
2022/11/07 06:32:59;;;;;;;23.08;9.10;;;10.70;99.90;;;;;;6180281;23;20109;-81
2022/11/07 06:35:25;;;;;;;21.15;7.55;;;10.70;99.90;;;;;;6155530;23;20088;-83
2022/11/07 06:37:51;;;;;;;26.90;9.18;;;10.60;99.90;;;;;;6180291;23;20076;-79
2022/11/07 06:40:16;;;;;;;29.23;9.32;;;10.60;99.90;;;;;;6156746;23;20014;-79
2022/11/07 06:42:42;;;;;;;21.83;8.13;;;10.60;99.90;;;;;;6155688;23;20014;-78
2022/11/07 06:45:08;;;;;;;25.92;8.77;;;10.60;99.90;;;;;;6155623;23;20024;-78
2022/11/07 06:47:34;;;;;;;26.42;7.35;;;10.60;99.90;;;;;;6155206;23;20013;-85
2022/11/07 06:49:59;;;;;;;26.80;9.07;;;10.60;99.90;;;;;;6157487;23;20053;-79
2022/11/07 06:52:26;;;;;;;24.42;8.23;;;10.60;99.90;;;;;;6157283;23;20053;-84
2022/11/07 06:54:52;;;;;;;25.85;9.25;;;10.60;99.90;;;;;;6180336;23;20089;-81
2022/11/07 06:57:17;;;;;;;19.65;8.95;;;10.60;99.90;;;;;;6157368;23;20045;-78
2022/11/07 06:59:43;;;;;;;25.50;9.93;;;10.70;99.90;;;;;;6155536;23;20060;-84
2022/11/07 07:02:11;;;;;;;20.15;8.75;;;10.60;99.90;;;;;;6156138;23;20013;-82
2022/11/07 07:04:37;;;;;;;29.30;8.88;;;10.60;99.90;;;;;;6180151;23;20009;-82
2022/11/07 07:07:03;;;;;;;24.45;9.13;;;10.70;99.90;;;;;;6157666;23;20067;-79
2022/11/07 07:09:29;;;;;;;23.50;9.30;;;10.70;99.90;;;;;;6157647;23;20340;-80
2022/11/07 07:11:54;;;;;;;26.10;9.95;;;10.70;99.90;;;;;;6158191;23;20017;-79
2022/11/07 07:14:20;;;;;;;23.65;9.98;;;10.70;99.90;;;;;;6156406;23;20014;-79
2022/11/07 07:16:45;;;;;;;27.38;9.38;;;10.70;99.90;;;;;;6156148;23;20021;-78
2022/11/07 07:19:11;;;;;;;25.73;9.23;;;10.70;99.90;;;;;;6156253;23;20021;-79
2022/11/07 07:21:37;;;;;;;28.40;10.05;;;10.70;99.90;;;;;;6181403;23;20057;-79
2022/11/07 07:24:03;;;;;;;21.10;8.45;;;10.70;99.90;;;;;;6158063;23;20363;-79
2022/11/07 07:26:29;;;;;;;26.73;8.93;;;10.70;99.90;;;;;;6157343;23;20482;-80
2022/11/07 07:28:54;;;;;;;28.30;9.98;;;10.80;99.90;;;;;;6159340;23;20009;-82
2022/11/07 07:31:38;;;;;;;23.50;9.68;;;10.80;99.90;;;;;;6167188;23;20017;-77
2022/11/07 07:34:04;;;;;;;24.30;10.15;;;10.80;99.90;;;;;;6159533;23;20010;-77
2022/11/07 07:36:31;;;;;;;29.17;10.95;;;10.80;99.90;;;;;;6156195;23;20109;-76
2022/11/07 07:38:57;;;;;;;28.13;8.65;;;10.80;99.90;;;;;;6155982;23;20494;-78
2022/11/07 07:41:23;;;;;;;24.17;9.27;;;10.80;99.90;;;;;;6157022;23;20017;-76
2022/11/07 07:43:49;;;;;;;19.20;7.85;;;10.90;99.90;;;;;;6155751;23;20069;-77
2022/11/07 07:46:18;;;;;;;17.80;8.25;;;10.90;99.90;;;;;;6157231;23;20063;-75
2022/11/07 07:48:44;;;;;;;25.70;8.85;;;10.90;99.90;;;;;;6157060;23;20458;-78
2022/11/07 07:51:10;;;;;;;23.60;7.93;;;11.00;99.90;;;;;;6156648;23;20013;-80
2022/11/07 07:53:35;;;;;;;23.00;7.82;;;11.00;99.90;;;;;;6155519;23;20080;-80
2022/11/07 07:56:05;;;;;;;22.98;8.55;;;11.00;99.90;;;;;;6155442;23;20435;-75
2022/11/07 07:58:31;;;;;;;28.00;9.00;;;11.00;99.90;;;;;;6156529;23;20486;-76
2022/11/07 08:00:57;;;;;;;28.40;8.82;;;11.10;99.90;;;;;;6157142;23;20028;-75
2022/11/07 08:03:23;;;;;;;28.83;9.55;;;11.10;99.90;;;;;;6155537;23;20013;-78
2022/11/07 08:05:57;;;;;;;25.17;8.52;;;11.20;99.90;;;;;;6156720;23;20017;-77
2022/11/07 08:08:24;;;;;;;27.08;8.73;;;11.20;99.90;;;;;;6156985;23;20096;-72
2022/11/07 08:10:58;;;;;;;20.48;8.15;;;11.20;99.90;;;;;;6179964;23;20091;-81
2022/11/07 08:13:25;;;;;;;24.20;9.13;;;11.20;99.90;;;;;;6180710;23;20033;-77
2022/11/07 08:15:51;;;;;;;28.60;8.05;;;11.20;99.90;;;;;;6155505;23;20096;-78
2022/11/07 08:18:20;;;;;;;27.88;7.72;;;11.20;99.90;;;;;;6180136;23;20018;-80
2022/11/07 08:20:48;;;;;;;21.63;7.65;;;11.30;99.90;;;;;;6179824;23;20009;-76
2022/11/07 08:23:14;;;;;;;15.00;6.72;;;11.30;99.90;;;;;;6156636;23;20010;-78
2022/11/07 08:25:40;;;;;;;27.77;7.82;;;11.30;99.90;;;;;;6157046;23;20012;-82
2022/11/07 08:28:07;;;;;;;24.27;6.53;;;11.40;99.90;;;;;;6180144;23;20021;-79
2022/11/07 08:30:34;;;;;;;27.75;6.72;;;11.40;99.90;;;;;;6179712;23;20048;-78
2022/11/07 08:33:02;;;;;;;19.20;6.50;;;11.40;99.90;;;;;;6154158;23;20343;-81
2022/11/07 08:35:31;;;;;;;21.00;6.13;;;11.40;99.90;;;;;;6180104;23;20320;-79
2022/11/07 08:37:58;;;;;;;20.80;6.70;;;11.50;99.90;;;;;;6154767;23;20335;-78
2022/11/07 08:40:24;;;;;;;15.02;5.85;;;11.40;99.90;;;;;;6130906;23;20021;-78
2022/11/07 08:42:50;;;;;;;19.17;5.60;;;11.50;99.90;;;;;;6179786;23;20121;-77
2022/11/07 08:45:15;;;;;;;16.30;6.20;;;11.50;99.90;;;;;;6178686;23;20049;-77
2022/11/07 08:47:41;;;;;;;16.38;5.82;;;11.50;99.90;;;;;;6179450;23;20014;-76
2022/11/07 08:50:07;;;;;;;21.48;6.22;;;11.50;99.90;;;;;;6156779;23;20024;-75
2022/11/07 08:52:34;;;;;;;17.45;6.50;;;11.50;99.90;;;;;;6178847;23;20021;-76
2022/11/07 08:55:00;;;;;;;24.75;6.78;;;11.50;99.90;;;;;;6153341;23;20013;-75
2022/11/07 08:57:26;;;;;;;20.73;6.72;;;11.40;99.90;;;;;;6156307;23;20009;-77
2022/11/07 08:59:51;;;;;;;19.70;6.38;;;11.40;99.90;;;;;;6154454;23;20339;-77
2022/11/07 09:02:17;;;;;;;21.98;7.20;;;11.40;99.90;;;;;;6154287;23;20013;-76
2022/11/07 09:04:42;;;;;;;30.40;6.88;;;11.40;99.90;;;;;;6179233;23;20391;-76
2022/11/07 09:07:08;;;;;;;24.05;6.68;;;11.40;99.90;;;;;;6154449;23;20042;-76
2022/11/07 09:09:33;;;;;;;28.58;7.22;;;11.40;99.90;;;;;;6156090;23;20435;-76
2022/11/07 09:11:59;;;;;;;23.58;6.78;;;11.40;99.90;;;;;;6154200;23;20056;-77
2022/11/07 09:14:25;;;;;;;24.33;6.72;;;11.40;99.90;;;;;;6154657;23;20162;-76
2022/11/07 09:16:51;;;;;;;20.15;6.82;;;11.50;99.90;;;;;;6154359;23;20064;-74
2022/11/07 09:19:16;;;;;;;21.67;6.93;;;11.50;99.90;;;;;;6156103;23;20379;-76
2022/11/07 09:21:44;;;;;;;23.27;5.20;;;11.50;99.90;;;;;;6154200;23;20068;-78
2022/11/07 09:24:10;;;;;;;17.90;5.88;;;11.60;99.90;;;;;;6154281;23;20088;-76
2022/11/07 09:26:35;;;;;;;23.73;6.93;;;11.60;99.90;;;;;;6154355;23;20055;-77
2022/11/07 09:29:01;;;;;;;19.30;7.15;;;11.50;99.90;;;;;;6154393;23;20064;-76
2022/11/07 09:31:27;;;;;;;17.08;6.45;;;11.60;99.90;;;;;;6155721;23;20137;-78
2022/11/07 09:33:52;;;;;;;22.17;6.82;;;11.60;99.90;;;;;;6156185;23;20085;-77
2022/11/07 09:36:19;;;;;;;19.33;6.30;;;11.60;99.90;;;;;;6154160;23;20013;-75
2022/11/07 09:38:44;;;;;;;24.48;6.03;;;11.60;99.90;;;;;;6156051;23;20010;-76
2022/11/07 09:41:42;;;;;;;20.60;6.30;;;11.60;99.90;;;;;;6178977;23;20350;-76
2022/11/07 09:44:59;;;;;;;21.55;6.43;;;11.60;99.90;;;;;;6156472;23;20382;-75
2022/11/07 09:47:41;;;;;;;22.30;6.27;;;11.70;99.90;;;;;;6072784;23;20025;-75
2022/11/07 09:50:21;;;;;;;15.70;5.05;;;11.70;99.90;;;;;;6148501;23;20037;-76
2022/11/07 09:53:12;;;;;;;20.27;5.03;;;11.70;99.90;;;;;;6156482;23;20021;-76
2022/11/07 09:55:47;;;;;;;15.43;4.55;;;11.70;99.90;;;;;;6181613;23;20107;-75
2022/11/07 09:58:41;;;;;;;19.98;5.70;;;11.80;99.90;;;;;;6156873;23;20084;-76
2022/11/07 10:01:16;;;;;;;19.52;5.63;;;11.90;99.90;;;;;;6180736;23;20025;-77
2022/11/07 10:03:42;;;;;;;17.65;5.63;;;11.90;99.90;;;;;;6181138;23;20017;-77
2022/11/07 10:06:23;;;;;;;16.90;4.90;;;11.90;99.90;;;;;;6181172;23;20013;-77
2022/11/07 10:08:59;;;;;;;16.25;4.63;;;11.90;99.90;;;;;;6156336;23;20469;-76
2022/11/07 10:11:27;;;;;;;17.25;5.57;;;12.00;99.90;;;;;;6157474;23;20344;-76
2022/11/07 10:14:07;;;;;;;12.88;4.78;;;12.00;99.90;;;;;;6157436;23;20482;-76
2022/11/07 10:16:43;;;;;;;17.02;5.35;;;12.00;99.90;;;;;;6157064;23;20041;-77
2022/11/07 10:19:32;;;;;;;16.25;4.95;;;12.00;99.90;;;;;;6155994;23;20009;-78
2022/11/07 10:22:36;;;;;;;14.07;4.43;;;12.00;99.90;;;;;;6155911;23;20383;-77
2022/11/07 10:25:19;;;;;;;17.77;4.78;;;12.10;99.90;;;;;;6121859;23;20466;-76
2022/11/07 10:27:51;;;;;;;30.13;6.78;;;12.20;99.90;;;;;;6155821;23;20009;-76
2022/11/07 10:30:19;;;;;;;18.70;5.93;;;12.30;99.90;;;;;;6157256;23;20014;-76
2022/11/07 10:33:02;;;;;;;13.85;4.90;;;12.30;99.90;;;;;;6155689;23;20017;-76
2022/11/07 10:35:30;;;;;;;21.33;4.65;;;12.30;99.90;;;;;;6155828;23;20009;-77
2022/11/07 10:37:59;;;;;;;13.23;4.57;;;12.40;99.90;;;;;;6155797;23;20084;-76
2022/11/07 10:40:32;;;;;;;17.27;4.93;;;12.40;99.90;;;;;;6131233;23;20016;-76
2022/11/07 10:42:59;;;;;;;20.85;5.20;;;12.50;99.90;;;;;;6180854;23;20028;-76
2022/11/07 10:45:26;;;;;;;15.38;4.80;;;12.50;99.90;;;;;;6131189;23;20021;-76
2022/11/07 10:48:04;;;;;;;18.08;5.30;;;12.60;99.90;;;;;;6157185;23;20019;-77
2022/11/07 10:50:29;;;;;;;16.00;5.32;;;12.60;99.90;;;;;;6180342;23;20045;-76
2022/11/07 10:53:02;;;;;;;15.10;4.15;;;12.60;99.90;;;;;;6156803;23;20024;-77
2022/11/07 10:55:40;;;;;;;16.30;4.45;;;12.60;99.90;;;;;;6155395;23;20085;-83
2022/11/07 10:58:06;;;;;;;16.27;5.00;;;12.70;99.90;;;;;;6157956;23;20447;-79
2022/11/07 11:00:34;;;;;;;19.92;5.20;;;12.70;99.90;;;;;;6157301;23;20063;-78
2022/11/07 11:02:59;;;;;;;17.02;4.00;;;12.80;99.90;;;;;;6155724;23;20013;-76
2022/11/07 11:05:47;;;;;;;14.90;4.75;;;12.70;99.90;;;;;;6155640;23;20076;-79
2022/11/07 11:08:17;;;;;;;20.13;4.95;;;12.80;99.90;;;;;;6181312;23;20009;-77
2022/11/07 11:10:44;;;;;;;17.75;5.18;;;12.80;99.90;;;;;;6180218;23;20013;-74
2022/11/07 11:13:29;;;;;;;17.27;5.00;;;12.80;99.90;;;;;;6157512;23;20017;-74
2022/11/07 11:15:57;;;;;;;23.42;5.70;;;12.90;99.90;;;;;;6156026;23;20439;-78
2022/11/07 11:18:23;;;;;;;16.27;4.68;;;12.90;99.90;;;;;;6157722;23;20009;-80
2022/11/07 11:21:02;;;;;;;15.32;4.47;;;13.00;99.90;;;;;;6156033;23;20463;-78
2022/11/07 11:23:36;;;;;;;13.82;4.35;;;13.00;99.90;;;;;;6156310;23;20016;-75
2022/11/07 11:26:06;;;;;;;14.98;4.30;;;13.10;99.90;;;;;;6180934;23;20108;-75
2022/11/07 11:28:44;;;;;;;14.18;4.47;;;13.20;99.90;;;;;;6157079;23;20041;-76
2022/11/07 11:31:28;;;;;;;15.82;4.13;;;13.20;99.90;;;;;;6180100;23;20386;-80
2022/11/07 11:34:02;;;;;;;16.90;3.92;;;13.20;99.90;;;;;;6180359;23;20014;-77
2022/11/07 11:36:34;;;;;;;14.63;4.30;;;13.20;99.90;;;;;;6181147;23;20018;-78
2022/11/07 11:39:04;;;;;;;15.63;4.45;;;13.30;99.90;;;;;;6155838;23;20020;-79
2022/11/07 11:41:56;;;;;;;13.88;4.10;;;13.30;99.90;;;;;;6156166;23;20010;-77
2022/11/07 11:44:40;;;;;;;16.85;3.92;;;13.30;99.90;;;;;;6157038;23;20005;-76
2022/11/07 11:47:26;;;;;;;12.70;3.70;;;13.30;99.90;;;;;;6157325;23;20418;-77
2022/11/07 11:49:59;;;;;;;14.05;4.32;;;13.30;99.90;;;;;;6155388;23;20035;-78
2022/11/07 11:52:27;;;;;;;12.48;3.97;;;13.30;99.90;;;;;;6179835;23;20013;-76
2022/11/07 11:54:55;;;;;;;12.23;3.45;;;13.30;99.90;;;;;;6157767;23;20009;-79
2022/11/07 11:57:54;;;;;;;14.13;3.67;;;13.30;99.90;;;;;;6157707;23;20010;-77
2022/11/07 12:00:22;;;;;;;12.45;3.20;;;13.30;99.90;;;;;;6156467;23;20081;-76
2022/11/07 12:03:07;;;;;;;10.85;3.78;;;13.40;99.90;;;;;;6154907;23;20120;-77
2022/11/07 12:06:04;;;;;;;12.85;3.95;;;13.50;99.90;;;;;;6180038;23;20455;-77
2022/11/07 12:08:50;;;;;;;8.70;3.15;;;13.60;99.90;;;;;;6155820;23;20041;-77
2022/11/07 12:11:36;;;;;;;13.30;3.08;;;13.70;99.90;;;;;;6155046;23;20022;-80
2022/11/07 12:14:05;;;;;;;12.73;3.40;;;13.70;99.90;;;;;;6155704;23;20010;-80
2022/11/07 12:16:42;;;;;;;11.02;3.00;;;13.70;99.90;;;;;;6156823;23;20010;-78
2022/11/07 12:19:17;;;;;;;11.93;3.25;;;13.70;99.90;;;;;;6132032;23;20506;-80
2022/11/07 12:22:12;;;;;;;16.30;4.65;;;13.70;99.90;;;;;;6161002;23;20022;-76
2022/11/07 12:24:58;;;;;;;11.65;3.67;;;13.80;99.90;;;;;;6127836;23;20025;-76
2022/11/07 12:27:51;;;;;;;14.82;3.75;;;13.90;99.90;;;;;;6157098;23;20024;-81
2022/11/07 12:30:50;;;;;;;13.73;3.60;;;14.10;99.90;;;;;;6156515;23;20020;-78
2022/11/07 12:33:49;;;;;;;12.52;3.50;;;14.00;99.90;;;;;;6155094;23;20095;-80
2022/11/07 12:36:34;;;;;;;9.45;3.90;;;13.90;99.90;;;;;;6155277;23;20018;-82
2022/11/07 12:39:30;;;;;;;12.40;3.35;;;13.80;99.90;;;;;;6155017;23;20017;-79
2022/11/07 12:42:33;;;;;;;18.65;4.47;;;13.70;99.90;;;;;;6155079;23;20018;-78
2022/11/07 12:45:20;;;;;;;14.88;3.90;;;13.60;99.90;;;;;;6109951;23;20021;-77
2022/11/07 12:48:14;;;;;;;11.40;3.60;;;13.70;99.90;;;;;;6154792;23;20017;-77
2022/11/07 12:51:14;;;;;;;18.02;3.95;;;13.70;99.90;;;;;;6156675;23;20037;-80
2022/11/07 12:53:55;;;;;;;12.73;3.92;;;13.70;99.90;;;;;;6156563;23;20014;-79
2022/11/07 12:56:26;;;;;;;18.42;4.50;;;13.70;99.90;;;;;;6180494;23;20016;-79
2022/11/07 12:58:53;;;;;;;14.77;4.07;;;13.70;99.90;;;;;;6155268;23;20431;-80
2022/11/07 13:01:26;;;;;;;12.68;3.85;;;13.70;99.90;;;;;;6179136;23;20017;-81
2022/11/07 13:04:35;;;;;;;17.05;4.00;;;13.70;99.90;;;;;;6154703;23;20050;-80
2022/11/07 13:07:10;;;;;;;15.75;3.72;;;13.70;99.90;;;;;;6154757;23;20017;-80
2022/11/07 13:10:01;;;;;;;16.92;3.83;;;13.70;99.90;;;;;;6154731;23;20017;-81
2022/11/07 13:12:56;;;;;;;14.82;4.30;;;13.70;99.90;;;;;;6129973;23;20013;-79
2022/11/07 13:15:23;;;;;;;14.30;4.03;;;13.60;99.90;;;;;;6179807;23;20013;-79
2022/11/07 13:17:48;;;;;;;10.40;3.65;;;13.70;99.90;;;;;;6155766;23;20020;-80
2022/11/07 13:20:20;;;;;;;11.75;3.70;;;13.70;99.90;;;;;;6155306;23;20014;-82
2022/11/07 13:22:57;;;;;;;11.00;3.78;;;13.70;99.90;;;;;;6154741;23;20459;-78
2022/11/07 13:25:30;;;;;;;14.75;3.63;;;13.70;99.90;;;;;;6155183;23;20017;-81
2022/11/07 13:27:56;;;;;;;15.25;4.18;;;13.70;99.90;;;;;;6155676;23;20483;-80
2022/11/07 13:30:28;;;;;;;16.80;3.97;;;13.70;99.90;;;;;;6156707;23;20024;-78
2022/11/07 13:32:54;;;;;;;11.95;3.95;;;13.70;99.90;;;;;;6154730;23;20100;-78
2022/11/07 13:35:25;;;;;;;14.52;3.75;;;13.70;99.90;;;;;;6179601;23;20455;-80
2022/11/07 13:37:59;;;;;;;14.43;3.42;;;13.70;99.90;;;;;;6155817;23;20013;-80
2022/11/07 13:40:36;;;;;;;16.75;4.13;;;13.70;99.90;;;;;;6155835;23;20106;-80
2022/11/07 13:43:16;;;;;;;12.98;4.68;;;13.70;99.90;;;;;;6155998;23;20048;-77
2022/11/07 13:45:49;;;;;;;16.88;4.18;;;13.60;99.90;;;;;;6154275;23;20017;-79
2022/11/07 13:48:23;;;;;;;20.67;5.07;;;13.60;99.90;;;;;;6154346;23;20021;-79
2022/11/07 13:51:16;;;;;;;14.57;4.93;;;13.60;99.90;;;;;;6155568;23;20020;-78
2022/11/07 13:53:53;;;;;;;15.98;4.47;;;13.60;99.90;;;;;;6172872;23;20018;-79
2022/11/07 13:56:42;;;;;;;16.00;3.60;;;13.60;99.90;;;;;;6156680;23;20041;-77
2022/11/07 13:59:46;;;;;;;17.90;4.35;;;13.60;99.90;;;;;;6155619;23;20069;-77
2022/11/07 14:02:24;;;;;;;17.80;4.55;;;13.50;99.90;;;;;;6158290;23;20064;-83
2022/11/07 14:05:10;;;;;;;12.50;3.90;;;13.50;99.90;;;;;;6157010;23;20013;-78
2022/11/07 14:07:39;;;;;;;19.23;4.53;;;13.50;99.90;;;;;;6157860;23;20017;-80
2022/11/07 14:10:15;;;;;;;14.23;4.55;;;13.50;99.90;;;;;;6157666;23;20041;-78
2022/11/07 14:12:42;;;;;;;18.88;5.05;;;13.50;99.90;;;;;;6158314;23;20045;-78
2022/11/07 14:15:15;;;;;;;17.30;4.97;;;13.50;99.90;;;;;;6156844;23;20072;-81
2022/11/07 14:17:43;;;;;;;20.60;5.22;;;13.50;99.90;;;;;;6155985;23;20021;-79
2022/11/07 14:20:15;;;;;;;17.95;4.68;;;13.50;99.90;;;;;;6180752;23;20105;-83
2022/11/07 14:22:55;;;;;;;23.70;5.53;;;13.50;99.90;;;;;;6156711;23;20026;-82
2022/11/07 14:25:24;;;;;;;16.70;4.45;;;13.50;99.90;;;;;;6157194;23;20014;-79
2022/11/07 14:27:50;;;;;;;22.90;5.18;;;13.50;99.90;;;;;;6180283;23;20017;-80
2022/11/07 14:30:19;;;;;;;13.95;4.80;;;13.50;99.90;;;;;;6157301;23;20021;-78
2022/11/07 14:33:04;;;;;;;16.58;5.18;;;13.50;99.90;;;;;;6158379;23;20404;-79
2022/11/07 14:35:33;;;;;;;25.33;5.38;;;13.50;99.90;;;;;;6132660;23;20416;-82
2022/11/07 14:38:08;;;;;;;18.55;4.40;;;13.50;99.90;;;;;;6182021;23;20474;-78
2022/11/07 14:40:39;;;;;;;16.73;4.28;;;13.50;99.90;;;;;;6132643;23;20009;-79
2022/11/07 14:43:05;;;;;;;16.30;4.85;;;13.50;99.90;;;;;;6156898;23;20064;-77
2022/11/07 14:45:31;;;;;;;11.18;4.28;;;13.50;99.90;;;;;;6158523;23;20375;-77
2022/11/07 14:47:57;;;;;;;17.20;5.00;;;13.50;99.90;;;;;;6156984;23;20053;-80
2022/11/07 14:50:28;;;;;;;17.63;4.90;;;13.50;99.90;;;;;;6156710;23;20468;-78
2022/11/07 14:53:03;;;;;;;19.17;4.50;;;13.50;99.90;;;;;;6157593;23;20078;-78
2022/11/07 14:55:32;;;;;;;16.05;4.72;;;13.50;99.90;;;;;;6157426;23;20013;-79
2022/11/07 14:58:04;;;;;;;14.68;4.38;;;13.50;99.90;;;;;;6158939;23;20016;-81
2022/11/07 15:00:32;;;;;;;20.65;4.07;;;13.50;99.90;;;;;;6182030;23;20332;-80
2022/11/07 15:02:58;;;;;;;22.17;5.28;;;13.50;99.90;;;;;;6181988;23;20469;-77
2022/11/07 15:05:29;;;;;;;19.33;5.05;;;13.50;99.90;;;;;;6159185;23;20077;-79
2022/11/07 15:07:58;;;;;;;13.98;4.95;;;13.50;99.90;;;;;;6181696;23;20014;-80
2022/11/07 15:10:44;;;;;;;16.98;4.32;;;13.50;99.90;;;;;;6158878;23;20010;-78
2022/11/07 15:13:23;;;;;;;21.50;5.53;;;13.50;99.90;;;;;;6181882;23;20013;-79
2022/11/07 15:16:19;;;;;;;19.55;4.60;;;13.40;99.90;;;;;;6181540;23;20014;-80
2022/11/07 15:18:55;;;;;;;16.15;4.78;;;13.40;99.90;;;;;;6181425;23;20013;-81
2022/11/07 15:21:31;;;;;;;18.67;5.15;;;13.30;99.90;;;;;;6158788;23;20014;-82
2022/11/07 15:23:59;;;;;;;15.55;4.30;;;13.30;99.90;;;;;;6159019;23;20016;-80
2022/11/07 15:26:30;;;;;;;18.65;5.63;;;13.30;99.90;;;;;;6156894;23;20020;-77
2022/11/07 15:29:19;;;;;;;15.60;4.95;;;13.20;99.90;;;;;;6158149;23;20587;-79
2022/11/07 15:31:47;;;;;;;18.45;5.20;;;13.20;99.90;;;;;;6180793;23;20044;-80
2022/11/07 15:34:16;;;;;;;15.95;4.60;;;13.20;99.90;;;;;;6182213;23;20010;-79
2022/11/07 15:36:43;;;;;;;18.60;4.45;;;13.20;99.90;;;;;;6180875;23;20017;-80
2022/11/07 15:39:12;;;;;;;16.67;5.00;;;13.20;99.90;;;;;;6156581;23;20427;-78
2022/11/07 15:41:37;;;;;;;19.92;5.57;;;13.10;99.90;;;;;;6158385;23;20017;-79
2022/11/07 15:44:03;;;;;;;14.07;4.57;;;13.00;99.90;;;;;;6156860;23;20020;-79
2022/11/07 15:46:35;;;;;;;19.95;5.57;;;13.00;99.90;;;;;;6156461;23;20502;-80
2022/11/07 15:49:01;;;;;;;13.88;4.95;;;13.00;99.90;;;;;;6156136;23;20018;-80
2022/11/07 15:51:28;;;;;;;24.48;5.13;;;13.00;99.90;;;;;;6180964;23;20025;-80
2022/11/07 15:53:54;;;;;;;20.27;5.40;;;12.90;99.90;;;;;;6156080;23;20431;-77
2022/11/07 15:56:22;;;;;;;20.80;5.53;;;13.00;99.90;;;;;;6155464;23;20017;-79
2022/11/07 15:58:48;;;;;;;22.77;5.88;;;12.90;99.90;;;;;;6155751;23;20089;-80
2022/11/07 16:01:14;;;;;;;21.10;5.97;;;12.90;99.90;;;;;;6156089;23;20072;-78
2022/11/07 16:03:39;;;;;;;20.77;6.18;;;12.80;99.90;;;;;;6131723;23;20017;-78
2022/11/07 16:06:35;;;;;;;17.48;5.03;;;12.80;99.90;;;;;;6180080;23;20018;-78
2022/11/07 16:09:04;;;;;;;18.38;5.03;;;12.80;99.90;;;;;;6137055;23;20020;-80
2022/11/07 16:11:29;;;;;;;22.52;6.55;;;12.70;99.90;;;;;;6155230;23;20325;-80
2022/11/07 16:13:55;;;;;;;27.48;6.68;;;12.70;99.90;;;;;;6156427;23;20096;-78
2022/11/07 16:16:32;;;;;;;21.95;5.45;;;12.70;99.90;;;;;;6157166;23;20013;-79
2022/11/07 16:18:58;;;;;;;18.70;5.80;;;12.70;99.90;;;;;;6155718;23;20023;-79
2022/11/07 16:21:24;;;;;;;18.38;5.22;;;12.70;99.90;;;;;;6155377;23;20319;-79
2022/11/07 16:23:51;;;;;;;18.88;5.90;;;12.60;99.90;;;;;;6157127;23;20045;-79
2022/11/07 16:26:26;;;;;;;23.88;6.20;;;12.70;99.90;;;;;;6155394;23;20017;-78
2022/11/07 16:28:52;;;;;;;24.52;6.45;;;12.60;99.90;;;;;;6180321;23;20017;-80
2022/11/07 16:31:18;;;;;;;20.30;6.90;;;12.60;99.90;;;;;;6131718;23;20057;-78
2022/11/07 16:33:44;;;;;;;21.60;6.65;;;12.60;99.90;;;;;;6157564;23;20019;-81
2022/11/07 16:36:31;;;;;;;23.30;6.38;;;12.60;99.90;;;;;;6155458;23;20044;-78
2022/11/07 16:39:00;;;;;;;23.02;5.78;;;12.60;99.90;;;;;;6180962;23;20013;-79
2022/11/07 16:41:29;;;;;;;24.77;6.30;;;12.60;99.90;;;;;;6155679;23;20023;-78
2022/11/07 16:43:55;;;;;;;20.50;5.50;;;12.60;99.90;;;;;;6157067;23;20364;-78
2022/11/07 16:46:23;;;;;;;20.38;6.43;;;12.60;99.90;;;;;;6156838;23;20076;-79
2022/11/07 16:48:51;;;;;;;23.95;6.20;;;12.60;99.90;;;;;;6155320;23;20439;-79
2022/11/07 16:51:19;;;;;;;28.23;6.85;;;12.60;99.90;;;;;;6156611;23;20069;-78
2022/11/07 16:53:45;;;;;;;21.38;6.10;;;12.60;99.90;;;;;;6154836;23;20061;-80
2022/11/07 16:56:24;;;;;;;28.17;6.63;;;12.60;99.90;;;;;;6130896;23;20013;-79
2022/11/07 16:58:50;;;;;;;20.38;6.05;;;12.60;99.90;;;;;;6179943;23;20064;-79
2022/11/07 17:01:19;;;;;;;20.17;6.22;;;12.60;99.90;;;;;;6130071;23;20015;-78
2022/11/07 17:03:45;;;;;;;22.00;6.72;;;12.60;99.90;;;;;;6155428;23;20021;-81